Time;durP1;ratioP1;P1;durP2;ratioP2;P2;SDS_P1;SDS_P2;PMS_P1;PMS_P2;Temp;Humidity;BMP_temperature;BMP_pressure;BME280_temperature;BME280_humidity;BME280_pressure;Samples;Min_cycle;Max_cycle;Signal;HPM_P1;HPM_P2
2021/05/28 00:00:50;;;;;;;9.15;6.72;;;;;;;;;;3534702;40;20079;-65
2021/05/28 00:03:16;;;;;;;12.02;7.20;;;;;;;;;;3534785;40;20047;-65
2021/05/28 00:05:42;;;;;;;8.80;6.50;;;;;;;;;;3534781;40;20034;-64
2021/05/28 00:08:08;;;;;;;13.38;7.55;;;;;;;;;;3535314;40;20056;-65
2021/05/28 00:10:34;;;;;;;12.25;7.15;;;;;;;;;;3533440;40;20043;-65
2021/05/28 00:13:00;;;;;;;12.50;6.78;;;;;;;;;;3536996;40;20413;-65
2021/05/28 00:15:26;;;;;;;11.45;7.05;;;;;;;;;;3533488;40;20392;-65
2021/05/28 00:17:52;;;;;;;11.57;5.97;;;;;;;;;;3533605;40;20491;-66
2021/05/28 00:20:18;;;;;;;8.25;6.22;;;;;;;;;;3537252;40;20066;-65
2021/05/28 00:22:45;;;;;;;10.43;6.60;;;;;;;;;;3536430;40;20038;-65
2021/05/28 00:25:11;;;;;;;9.07;6.38;;;;;;;;;;3535801;40;20053;-64
2021/05/28 00:27:37;;;;;;;11.23;6.50;;;;;;;;;;3534624;40;20038;-65
2021/05/28 00:30:04;;;;;;;10.93;7.03;;;;;;;;;;3533086;40;20251;-65
2021/05/28 00:32:30;;;;;;;12.15;7.03;;;;;;;;;;3535671;40;20079;-65
2021/05/28 00:34:56;;;;;;;16.17;7.22;;;;;;;;;;3531186;40;20035;-65
2021/05/28 00:37:23;;;;;;;11.27;7.25;;;;;;;;;;3535450;40;20030;-65
2021/05/28 00:39:49;;;;;;;12.43;8.00;;;;;;;;;;3536945;40;20039;-65
2021/05/28 00:42:15;;;;;;;15.70;7.88;;;;;;;;;;3536266;40;20046;-65
2021/05/28 00:44:41;;;;;;;14.98;8.32;;;;;;;;;;3537233;40;20034;-65
2021/05/28 00:47:08;;;;;;;12.15;7.65;;;;;;;;;;3534609;40;20049;-65
2021/05/28 00:49:34;;;;;;;12.50;7.70;;;;;;;;;;3533813;40;20152;-65
2021/05/28 00:52:00;;;;;;;11.45;7.35;;;;;;;;;;3537744;40;20618;-65
2021/05/28 00:54:26;;;;;;;12.18;7.35;;;;;;;;;;3536156;40;20027;-65
2021/05/28 00:56:53;;;;;;;12.45;7.88;;;;;;;;;;3533575;40;20047;-63
2021/05/28 00:59:19;;;;;;;10.30;7.22;;;;;;;;;;3533998;40;20039;-65
2021/05/28 01:01:46;;;;;;;13.68;6.88;;;;;;;;;;3532369;40;20161;-65
2021/05/28 01:04:12;;;;;;;13.88;8.00;;;;;;;;;;3532537;40;20039;-65
2021/05/28 01:06:38;;;;;;;12.80;6.95;;;;;;;;;;3531519;40;20026;-64
2021/05/28 01:09:08;;;;;;;12.48;7.22;;;;;;;;;;3533688;40;20050;-65
2021/05/28 01:11:34;;;;;;;11.07;6.40;;;;;;;;;;3534354;40;20038;-65
2021/05/28 01:14:01;;;;;;;13.75;7.55;;;;;;;;;;3533174;40;20205;-65
2021/05/28 01:16:27;;;;;;;17.40;6.85;;;11.00;99.90;;;;;;3535141;40;20098;-65
2021/05/28 01:18:53;;;;;;;11.30;6.35;;;;;;;;;;3532409;40;20049;-65
2021/05/28 01:21:20;;;;;;;11.45;5.47;;;;;;;;;;3535948;40;20069;-65
2021/05/28 01:23:47;;;;;;;10.50;5.78;;;;;;;;;;3534710;40;20060;-65
2021/05/28 01:26:13;;;;;;;10.02;5.45;;;;;;;;;;3537720;40;20065;-65
2021/05/28 01:28:38;;;;;;;8.88;4.72;;;11.60;99.90;;;;;;3533794;40;20050;-65
2021/05/28 01:31:04;;;;;;;9.23;4.63;;;;;;;;;;3532720;40;20051;-65
2021/05/28 01:33:31;;;;;;;7.10;4.85;;;;;;;;;;3535169;40;20046;-65
2021/05/28 01:35:58;;;;;;;6.53;4.30;;;;;;;;;;3536365;40;20512;-65
2021/05/28 01:38:25;;;;;;;6.30;4.72;;;;;;;;;;3533818;40;20815;-65
2021/05/28 01:40:52;;;;;;;5.35;4.07;;;;;;;;;;3532366;40;20034;-65
2021/05/28 01:43:18;;;;;;;7.75;4.07;;;;;;;;;;3536245;40;20035;-65
2021/05/28 01:45:44;;;;;;;6.38;3.90;;;;;;;;;;3536250;40;20023;-65
2021/05/28 01:48:10;;;;;;;6.75;3.65;;;;;;;;;;3525931;40;20049;-65
2021/05/28 01:50:43;;;;;;;8.57;3.80;;;;;;;;;;3536160;40;20042;-65
2021/05/28 01:53:14;;;;;;;7.63;3.60;;;;;;;;;;3536846;40;20417;-65
2021/05/28 01:55:40;;;;;;;7.55;3.75;;;;;;;;;;3535361;40;20327;-65
2021/05/28 01:58:13;;;;;;;5.20;3.17;;;;;;;;;;3535821;40;20042;-65
2021/05/28 02:00:40;;;;;;;4.53;3.75;;;;;;;;;;3538726;40;20058;-65
2021/05/28 02:03:07;;;;;;;7.35;3.00;;;;;;;;;;3537437;40;20051;-65
2021/05/28 02:05:34;;;;;;;4.32;3.00;;;;;;;;;;3536441;40;20760;-65
2021/05/28 02:08:00;;;;;;;9.00;2.90;;;;;;;;;;3535402;40;20037;-65
2021/05/28 02:10:28;;;;;;;4.75;2.72;;;;;;;;;;3538036;40;20046;-65
2021/05/28 02:12:55;;;;;;;5.28;2.75;;;;;;;;;;3533492;40;20047;-65
2021/05/28 02:15:22;;;;;;;5.40;2.47;;;;;;;;;;3533489;40;20033;-65
2021/05/28 02:17:49;;;;;;;3.22;2.63;;;;;;;;;;3534317;40;20762;-65
2021/05/28 02:20:15;;;;;;;2.47;2.13;;;;;;;;;;3534744;40;20038;-65
2021/05/28 02:22:41;;;;;;;3.28;2.38;;;;;;;;;;3534457;40;20512;-65
2021/05/28 02:25:08;;;;;;;3.20;2.40;;;;;;;;;;3532942;40;20030;-65
2021/05/28 02:27:35;;;;;;;4.22;2.50;;;;;;;;;;3536201;40;20046;-65
2021/05/28 02:30:01;;;;;;;9.43;3.88;;;;;;;;;;3533880;40;20760;-65
2021/05/28 02:32:27;;;;;;;3.53;2.33;;;;;;;;;;3535827;40;20045;-65
2021/05/28 02:34:54;;;;;;;5.97;2.53;;;;;;;;;;3536048;40;20038;-65
2021/05/28 02:37:20;;;;;;;3.83;2.65;;;;;;;;;;3534199;40;20152;-65
2021/05/28 02:39:46;;;;;;;4.75;3.05;;;;;;;;;;3533103;40;20029;-65
2021/05/28 02:42:12;;;;;;;7.32;2.70;;;;;;;;;;3533905;40;20345;-65
2021/05/28 02:44:39;;;;;;;5.28;3.08;;;;;;;;;;3534509;40;20522;-65
2021/05/28 02:47:05;;;;;;;5.50;3.20;;;;;;;;;;3537631;40;20065;-65
2021/05/28 02:49:31;;;;;;;6.85;3.15;;;;;;;;;;3537526;40;20657;-65
2021/05/28 02:51:58;;;;;;;5.40;3.17;;;;;;;;;;3535508;40;20051;-65
2021/05/28 02:54:25;;;;;;;6.32;3.28;;;;;;;;;;3538038;40;20042;-65
2021/05/28 02:56:51;;;;;;;5.45;2.97;;;;;;;;;;3540408;40;20050;-65
2021/05/28 02:59:17;;;;;;;8.38;3.38;;;;;;;;;;3538428;40;20039;-65
2021/05/28 03:01:43;;;;;;;5.25;3.35;;;;;;;;;;3539201;40;20405;-65
2021/05/28 03:04:09;;;;;;;9.18;3.67;;;;;;;;;;3534296;40;20042;-65
2021/05/28 03:06:36;;;;;;;5.22;3.80;;;;;;;;;;3539493;40;20034;-65
2021/05/28 03:09:03;;;;;;;5.63;3.63;;;;;;;;;;3539109;40;20027;-65
2021/05/28 03:11:29;;;;;;;6.38;3.63;;;;;;;;;;3537307;40;20349;-65
2021/05/28 03:13:56;;;;;;;5.30;3.30;;;;;;;;;;3539223;40;20046;-65
2021/05/28 03:16:22;;;;;;;7.60;3.33;;;;;;;;;;3541609;40;20043;-65
2021/05/28 03:18:57;;;;;;;5.90;3.20;;;;;;;;;;3538642;40;20080;-65
2021/05/28 03:21:37;;;;;;;6.60;3.30;;;;;;;;;;3536728;40;20070;-65
2021/05/28 03:24:03;;;;;;;9.15;3.53;;;;;;;;;;3539220;40;20118;-65
2021/05/28 03:26:30;;;;;;;3.38;2.90;;;;;;;;;;3538359;40;20045;-64
2021/05/28 03:28:57;;;;;;;9.50;4.20;;;;;;;;;;3539457;40;20041;-65
2021/05/28 03:31:24;;;;;;;6.53;3.63;;;10.40;99.90;;;;;;3539601;40;20155;-65
2021/05/28 03:33:50;;;;;;;5.43;3.70;;;;;;;;;;3541262;40;20039;-65
2021/05/28 03:36:16;;;;;;;8.30;3.58;;;;;;;;;;3539408;40;20035;-65
2021/05/28 03:38:43;;;;;;;5.38;3.50;;;;;;;;;;3537694;40;20066;-65
2021/05/28 03:41:09;;;;;;;5.78;3.38;;;;;;;;;;3540413;40;20038;-65
2021/05/28 03:43:35;;;;;;;4.40;3.30;;;;;;;;;;3538033;40;20042;-65
2021/05/28 03:46:02;;;;;;;5.15;3.25;;;;;;;;;;3539470;40;20118;-65
2021/05/28 03:48:28;;;;;;;5.55;3.60;;;;;;;;;;3537046;40;20037;-65
2021/05/28 03:50:54;;;;;;;7.60;3.67;;;;;;;;;;3537292;40;20054;-65
2021/05/28 03:53:20;;;;;;;4.28;3.13;;;;;;;;;;3541107;40;20034;-65
2021/05/28 03:55:47;;;;;;;5.55;3.10;;;;;;;;;;3542713;40;20034;-65
2021/05/28 03:58:13;;;;;;;4.75;2.95;;;;;;;;;;3537315;40;20312;-65
2021/05/28 04:00:39;;;;;;;5.32;3.08;;;;;;;;;;3537422;40;20348;-65
2021/05/28 04:03:05;;;;;;;6.65;3.15;;;;;;;;;;3538413;40;20042;-65
2021/05/28 04:05:32;;;;;;;4.53;2.80;;;;;;;;;;3539134;40;20049;-65
2021/05/28 04:07:58;;;;;;;8.40;2.80;;;;;;;;;;3539594;40;20046;-65
2021/05/28 04:10:24;;;;;;;16.48;5.28;;;;;;;;;;3538992;40;20038;-65
2021/05/28 04:12:53;;;;;;;5.70;2.80;;;;;;;;;;3533927;40;20035;-65
2021/05/28 04:15:19;;;;;;;9.30;2.80;;;;;;;;;;3536217;40;20447;-65
2021/05/28 04:17:45;;;;;;;5.32;2.70;;;11.50;99.90;;;;;;3537823;40;20034;-65
2021/05/28 04:20:12;;;;;;;6.45;2.80;;;10.90;99.90;;;;;;3539398;40;20022;-65
2021/05/28 04:22:38;;;;;;;4.28;2.63;;;;;;;;;;3534247;40;20463;-65
2021/05/28 04:25:04;;;;;;;5.82;2.95;;;;;;;;;;3538735;40;20047;-65
2021/05/28 04:27:30;;;;;;;4.80;2.88;;;;;;;;;;3535256;40;20051;-65
2021/05/28 04:29:56;;;;;;;5.25;3.08;;;;;;;;;;3536572;40;20069;-65
2021/05/28 04:32:23;;;;;;;2.83;2.53;;;;;;;;;;3538799;40;20035;-64
2021/05/28 04:34:49;;;;;;;4.05;2.80;;;;;;;;;;3540610;40;20116;-65
2021/05/28 04:37:15;;;;;;;2.92;2.30;;;;;;;;;;3536025;40;20579;-65
2021/05/28 04:39:41;;;;;;;3.97;2.60;;;;;;;;;;3533981;40;20035;-65
2021/05/28 04:42:07;;;;;;;7.60;2.75;;;;;;;;;;3535922;40;20041;-65
2021/05/28 04:44:33;;;;;;;6.50;2.47;;;;;;;;;;3537163;40;20791;-65
2021/05/28 04:46:59;;;;;;;3.72;2.45;;;;;;;;;;3537389;40;20030;-65
2021/05/28 04:49:25;;;;;;;5.15;2.72;;;;;;;;;;3540472;40;20054;-65
2021/05/28 04:51:51;;;;;;;4.80;2.60;;;;;;;;;;3538538;40;20043;-66
2021/05/28 04:54:18;;;;;;;6.22;2.35;;;;;;;;;;3536108;40;20066;-65
2021/05/28 04:56:44;;;;;;;4.10;2.35;;;;;;;;;;3536760;40;20046;-65
2021/05/28 04:59:10;;;;;;;3.28;2.40;;;;;;;;;;3538799;40;20026;-65
2021/05/28 05:01:38;;;;;;;2.90;2.17;;;11.50;99.90;;;;;;3536914;40;20049;-65
2021/05/28 05:04:04;;;;;;;3.97;2.85;;;;;;;;;;3532933;40;20075;-65
2021/05/28 05:06:30;;;;;;;4.07;2.40;;;;;;;;;;3537749;40;20602;-64
2021/05/28 05:08:56;;;;;;;3.30;2.40;;;;;;;;;;3539413;40;20124;-65
2021/05/28 05:11:22;;;;;;;3.88;2.97;;;;;;;;;;3538017;40;20046;-65
2021/05/28 05:13:48;;;;;;;3.63;2.35;;;;;;;;;;3539445;40;20046;-65
2021/05/28 05:16:14;;;;;;;4.38;2.20;;;;;;;;;;3536796;40;20604;-65
2021/05/28 05:18:41;;;;;;;4.18;2.30;;;;;;;;;;3536866;40;20043;-65
2021/05/28 05:21:07;;;;;;;3.00;2.10;;;;;;;;;;3536722;40;20558;-65
2021/05/28 05:23:33;;;;;;;3.22;2.20;;;;;;;;;;3536164;40;20426;-65
2021/05/28 05:25:59;;;;;;;5.13;2.40;;;;;;;;;;3535558;40;20034;-66
2021/05/28 05:28:25;;;;;;;5.55;2.20;;;;;;;;;;3534912;40;20901;-66
2021/05/28 05:30:51;;;;;;;37.50;15.45;;;;;;;;;;3536487;40;20035;-66
2021/05/28 05:33:18;;;;;;;8.27;3.03;;;;;;;;;;3536572;40;20039;-66
2021/05/28 05:35:44;;;;;;;7.20;2.72;;;;;;;;;;3537355;40;20174;-66
2021/05/28 05:38:10;;;;;;;11.50;2.30;;;;;;;;;;3535229;40;20719;-66
2021/05/28 05:40:37;;;;;;;2.88;2.03;;;;;;;;;;3537053;40;20317;-66
2021/05/28 05:43:03;;;;;;;3.60;2.35;;;;;;;;;;3532923;40;20086;-66
2021/05/28 05:45:29;;;;;;;8.60;4.32;;;;;;;;;;3537523;40;20034;-65
2021/05/28 05:47:56;;;;;;;5.55;2.13;;;;;;;;;;3535824;40;20038;-65
2021/05/28 05:50:22;;;;;;;8.25;2.95;;;;;;;;;;3538253;40;20069;-65
2021/05/28 05:52:48;;;;;;;5.03;2.42;;;;;;;;;;3539019;40;20114;-66
2021/05/28 05:55:15;;;;;;;5.38;2.65;;;;;;;;;;3531432;40;20034;-66
2021/05/28 05:57:42;;;;;;;2.95;2.35;;;;;;;;;;3532719;40;20201;-67
2021/05/28 06:00:08;;;;;;;4.72;2.80;;;;;;;;;;3536617;40;20313;-66
2021/05/28 06:02:34;;;;;;;4.13;2.20;;;;;;;;;;3535453;40;20034;-66
2021/05/28 06:05:00;;;;;;;6.57;2.63;;;;;;;;;;3538642;40;20407;-67
2021/05/28 06:07:26;;;;;;;11.55;2.90;;;;;;;;;;3538261;40;20049;-66
2021/05/28 06:09:52;;;;;;;4.63;2.20;;;;;;;;;;3535099;40;20041;-67
2021/05/28 06:12:18;;;;;;;8.98;4.80;;;;;;;;;;3534721;40;20035;-67
2021/05/28 06:14:44;;;;;;;6.07;2.85;;;;;;;;;;3536720;40;20471;-68
2021/05/28 06:17:10;;;;;;;2.30;1.90;;;;;;;;;;3536091;40;20242;-66
2021/05/28 06:19:37;;;;;;;5.97;2.40;;;;;;;;;;3535981;40;20643;-65
2021/05/28 06:22:03;;;;;;;3.15;2.28;;;;;;;;;;3534736;40;20045;-66
2021/05/28 06:24:29;;;;;;;4.95;2.17;;;;;;;;;;3535437;40;20046;-66
2021/05/28 06:26:55;;;;;;;5.38;2.13;;;;;;;;;;3535516;40;20042;-66
2021/05/28 06:29:21;;;;;;;4.03;2.20;;;;;;;;;;3533295;40;20022;-67
2021/05/28 06:31:47;;;;;;;8.95;2.20;;;;;;;;;;3536065;40;20038;-66
2021/05/28 06:34:13;;;;;;;4.07;2.30;;;;;;;;;;3533549;40;20316;-66
2021/05/28 06:36:39;;;;;;;6.55;3.97;;;;;;;;;;3539399;40;20798;-65
2021/05/28 06:39:07;;;;;;;9.05;4.30;;;;;;;;;;3537446;40;20054;-65
2021/05/28 06:41:34;;;;;;;10.27;4.20;;;;;;;;;;3534725;40;20038;-66
2021/05/28 06:44:00;;;;;;;6.10;2.72;;;;;;;;;;3536607;40;20066;-66
2021/05/28 06:46:26;;;;;;;5.93;2.45;;;;;;;;;;3533666;40;20125;-66
2021/05/28 06:48:53;;;;;;;4.80;2.38;;;;;;;;;;3539537;40;20038;-66
2021/05/28 06:51:20;;;;;;;4.90;2.05;;;;;;;;;;3536399;40;20045;-66
2021/05/28 06:53:46;;;;;;;4.85;2.28;;;;;;;;;;3537098;40;20043;-65
2021/05/28 06:56:12;;;;;;;6.20;2.60;;;;;;;;;;3537985;40;20035;-66
2021/05/28 06:58:38;;;;;;;5.00;2.50;;;14.40;99.90;;;;;;3536241;40;20038;-66
2021/05/28 07:01:04;;;;;;;11.13;2.35;;;;;;;;;;3538692;40;20112;-66
2021/05/28 07:03:30;;;;;;;5.20;3.08;;;;;;;;;;3540405;40;20077;-66
2021/05/28 07:05:56;;;;;;;5.80;2.28;;;;;;;;;;3535541;40;20320;-66
2021/05/28 07:08:22;;;;;;;4.13;2.20;;;;;;;;;;3538462;40;20501;-66
2021/05/28 07:10:48;;;;;;;5.95;2.22;;;14.60;99.90;;;;;;3536190;40;20066;-67
2021/05/28 07:13:14;;;;;;;3.25;1.83;;;;;;;;;;3537107;40;20421;-66
2021/05/28 07:15:40;;;;;;;6.50;2.70;;;;;;;;;;3536990;40;20045;-66
2021/05/28 07:18:06;;;;;;;2.58;1.90;;;;;;;;;;3539302;40;20249;-67
2021/05/28 07:20:32;;;;;;;4.28;1.95;;;;;;;;;;3533996;40;20112;-66
2021/05/28 07:22:58;;;;;;;7.03;2.00;;;;;;;;;;3536630;40;20309;-66
2021/05/28 07:25:25;;;;;;;2.83;1.70;;;;;;;;;;3538055;40;20152;-67
2021/05/28 07:27:52;;;;;;;4.32;1.73;;;;;;;;;;3535873;40;20035;-66
2021/05/28 07:30:18;;;;;;;7.40;2.25;;;;;;;;;;3536877;40;20043;-66
2021/05/28 07:32:44;;;;;;;6.07;2.33;;;;;;;;;;3534682;40;20145;-65
2021/05/28 07:35:11;;;;;;;30.70;13.98;;;;;;;;;;3534973;40;20038;-66
2021/05/28 07:37:37;;;;;;;5.80;2.55;;;;;;;;;;3535307;40;20037;-67
2021/05/28 07:40:04;;;;;;;6.25;2.25;;;;;;;;;;3536767;40;20096;-67
2021/05/28 07:42:30;;;;;;;4.38;2.30;;;;;;;;;;3540923;40;20672;-66
2021/05/28 07:44:56;;;;;;;6.88;2.03;;;;;;;;;;3536371;40;20152;-67
2021/05/28 07:47:22;;;;;;;2.78;1.80;;;;;;;;;;3536524;40;20605;-66
2021/05/28 07:49:48;;;;;;;4.10;1.75;;;;;;;;;;3536593;40;20049;-66
2021/05/28 07:52:14;;;;;;;7.25;1.77;;;;;;;;;;3535684;40;20038;-66
2021/05/28 07:54:40;;;;;;;3.47;1.70;;;;;;;;;;3535389;40;20026;-66
2021/05/28 07:57:08;;;;;;;5.00;1.92;;;16.10;99.90;;;;;;3537490;40;20073;-67
2021/05/28 07:59:34;;;;;;;7.05;2.10;;;;;;;;;;3536564;40;20042;-67
2021/05/28 08:02:00;;;;;;;6.15;1.77;;;;;;;;;;3536560;40;20406;-66
2021/05/28 08:04:26;;;;;;;3.10;1.58;;;;;;;;;;3537638;40;20165;-66
2021/05/28 08:06:52;;;;;;;3.92;1.92;;;;;;;;;;3535557;40;20144;-66
2021/05/28 08:09:18;;;;;;;4.05;1.42;;;;;;;;;;3534105;40;20038;-66
2021/05/28 08:11:44;;;;;;;2.20;1.30;;;;;;;;;;3538802;40;20045;-66
2021/05/28 08:14:10;;;;;;;3.75;1.67;;;;;;;;;;3538764;40;20321;-66
2021/05/28 08:16:38;;;;;;;1.65;1.20;;;;;;;;;;3535716;40;20136;-66
2021/05/28 08:19:04;;;;;;;3.25;1.33;;;;;;;;;;3534302;40;20043;-67
2021/05/28 08:21:30;;;;;;;5.60;1.95;;;;;;;;;;3535753;40;20031;-66
2021/05/28 08:23:56;;;;;;;1.98;1.40;;;;;;;;;;3532568;40;20039;-66
2021/05/28 08:26:22;;;;;;;4.78;1.30;;;;;;;;;;3537672;40;20038;-66
2021/05/28 08:28:49;;;;;;;3.05;1.30;;;;;;;;;;3537267;40;20041;-66
2021/05/28 08:31:15;;;;;;;2.28;1.35;;;;;;;;;;3535569;40;20039;-67
2021/05/28 08:33:43;;;;;;;2.13;1.45;;;;;;;;;;3535573;40;20035;-66
2021/05/28 08:36:09;;;;;;;1.25;1.15;;;;;;;;;;3537126;40;20498;-66
2021/05/28 08:38:36;;;;;;;2.47;1.45;;;;;;;;;;3538806;40;20038;-66
2021/05/28 08:41:02;;;;;;;6.85;1.95;;;;;;;;;;3537419;40;20023;-66
2021/05/28 08:43:28;;;;;;;2.58;1.10;;;;;;;;;;3536491;40;20312;-67
2021/05/28 08:45:55;;;;;;;6.07;1.40;;;;;;;;;;3537573;40;20042;-66
2021/05/28 08:48:21;;;;;;;5.13;1.40;;;;;;;;;;3539183;40;20075;-65
2021/05/28 08:50:49;;;;;;;6.35;2.17;;;;;;;;;;3536602;40;20392;-66
2021/05/28 08:53:15;;;;;;;3.05;1.80;;;;;;;;;;3536957;40;20046;-67
2021/05/28 08:55:42;;;;;;;2.55;1.30;;;;;;;;;;3539187;40;20259;-66
2021/05/28 08:58:13;;;;;;;2.08;1.35;;;;;;;;;;3539410;40;20456;-66
2021/05/28 09:00:40;;;;;;;2.30;1.13;;;;;;;;;;3535277;40;20176;-66
2021/05/28 09:03:19;;;;;;;1.65;1.20;;;;;;;;;;3536073;40;20616;-66
2021/05/28 09:05:46;;;;;;;1.50;1.30;;;;;;;;;;3539560;40;20026;-67
2021/05/28 09:08:12;;;;;;;3.67;1.60;;;;;;;;;;3537339;40;20538;-66
2021/05/28 09:10:39;;;;;;;1.92;1.40;;;;;;;;;;3537447;40;20035;-66
2021/05/28 09:13:17;;;;;;;11.27;4.10;;;;;;;;;;3535703;40;20042;-66
2021/05/28 09:15:47;;;;;;;7.43;2.40;;;;;;;;;;3536176;40;20042;-66
2021/05/28 09:18:14;;;;;;;2.67;1.30;;;;;;;;;;3536768;40;20058;-66
2021/05/28 09:20:45;;;;;;;2.25;1.05;;;;;;;;;;3537832;40;20565;-66
2021/05/28 09:23:12;;;;;;;2.38;1.10;;;;;;;;;;3537545;40;20332;-66
2021/05/28 09:25:57;;;;;;;1.95;1.10;;;17.80;98.70;;;;;;3533723;40;20102;-66
2021/05/28 09:28:24;;;;;;;6.75;1.58;;;;;;;;;;3539664;40;20134;-65
2021/05/28 09:30:53;;;;;;;1.63;1.02;;;;;;;;;;3536126;40;20073;-66
2021/05/28 09:33:20;;;;;;;15.10;1.25;;;;;;;;;;3534507;40;20719;-67
2021/05/28 09:35:48;;;;;;;4.03;1.15;;;;;;;;;;3537109;40;20031;-66
2021/05/28 09:38:21;;;;;;;3.03;1.08;;;;;;;;;;3533406;40;20039;-67
2021/05/28 09:40:47;;;;;;;1.05;0.90;;;;;;;;;;3531687;40;20388;-67
2021/05/28 09:43:21;;;;;;;6.07;1.10;;;;;;;;;;3535262;40;20102;-67
2021/05/28 09:45:48;;;;;;;1.70;0.95;;;;;;;;;;3536113;40;20701;-66
2021/05/28 09:48:14;;;;;;;2.90;1.40;;;;;;;;;;3536705;40;20731;-66
2021/05/28 09:50:44;;;;;;;46.78;5.93;;;;;;;;;;3535536;40;20030;-66
2021/05/28 09:53:25;;;;;;;1.85;1.35;;;;;;;;;;3538419;40;20054;-66
2021/05/28 09:55:52;;;;;;;2.28;0.80;;;;;;;;;;3535422;40;20039;-66
2021/05/28 09:58:18;;;;;;;3.70;0.80;;;;;;;;;;3537323;40;20057;-67
2021/05/28 10:00:44;;;;;;;2.92;1.60;;;;;;;;;;3536110;40;20692;-67
2021/05/28 10:03:26;;;;;;;3.58;1.83;;;;;;;;;;3537423;40;20054;-67
2021/05/28 10:05:57;;;;;;;20.30;1.98;;;;;;;;;;3535867;40;20714;-66
2021/05/28 10:08:24;;;;;;;6.07;3.30;;;;;;;;;;3533441;40;20042;-66
2021/05/28 10:10:51;;;;;;;3.15;0.98;;;;;;;;;;3538585;40;20177;-67
2021/05/28 10:13:18;;;;;;;7.95;4.75;;;;;;;;;;3534975;40;20388;-67
2021/05/28 10:15:54;;;;;;;4.50;1.23;;;;;;;;;;3535323;40;20081;-67
2021/05/28 10:18:21;;;;;;;6.70;1.20;;;;;;;;;;3536363;40;20050;-67
2021/05/28 10:20:53;;;;;;;1.23;0.88;;;;;;;;;;3536362;40;20043;-65
2021/05/28 10:23:19;;;;;;;1.85;1.00;;;;;;;;;;3538737;40;20046;-67
2021/05/28 10:25:46;;;;;;;0.85;0.80;;;;;;;;;;3535168;40;20122;-66
2021/05/28 10:28:20;;;;;;;1.45;0.80;;;;;;;;;;3538846;40;20048;-67
2021/05/28 10:30:46;;;;;;;2.50;0.80;;;;;;;;;;3538244;40;20487;-66
2021/05/28 10:33:19;;;;;;;1.10;0.93;;;;;;;;;;3540242;40;20124;-66
2021/05/28 10:35:50;;;;;;;3.53;0.88;;;;;;;;;;3539070;40;20090;-66
2021/05/28 10:38:31;;;;;;;1.90;1.40;;;;;;;;;;3536830;40;20150;-67
2021/05/28 10:41:18;;;;;;;3.33;2.00;;;;;;;;;;3537751;40;20034;-66
2021/05/28 10:43:50;;;;;;;3.53;1.80;;;;;;;;;;3535913;40;20049;-65
2021/05/28 10:46:20;;;;;;;3.08;1.75;;;;;;;;;;3539075;40;20140;-66
2021/05/28 10:48:46;;;;;;;1.75;1.30;;;;;;;;;;3540060;40;20054;-66
2021/05/28 10:51:17;;;;;;;7.05;1.40;;;;;;;;;;3537109;40;20577;-67
2021/05/28 10:53:52;;;;;;;2.30;1.20;;;;;;;;;;3535979;40;20051;-66
2021/05/28 10:56:18;;;;;;;;;;;;;;;;;;3535651;40;20143;-66
2021/05/28 10:58:58;;;;;;;2.50;1.02;;;;;;;;;;3534046;40;20036;-66
2021/05/28 11:01:33;;;;;;;3.53;0.98;;;;;;;;;;3533235;40;20047;-66
2021/05/28 11:03:59;;;;;;;;;;;;;;;;;;3533605;40;20106;-66
2021/05/28 11:06:26;;;;;;;4.72;1.15;;;;;;;;;;3537574;40;19934;-66
2021/05/28 11:08:57;;;;;;;4.43;2.10;;;;;;;;;;3535519;40;20031;-66
2021/05/28 11:11:41;;;;;;;1.95;1.13;;;;;;;;;;3534298;40;20121;-66
2021/05/28 11:14:10;;;;;;;1.75;1.10;;;;;;;;;;3539482;40;20414;-67
2021/05/28 11:16:57;;;;;;;6.10;1.20;;;;;;;;;;3537663;40;20038;-66
2021/05/28 11:19:29;;;;;;;6.93;1.65;;;;;;;;;;3537479;40;20144;-66
2021/05/28 11:21:59;;;;;;;1.80;1.13;;;;;;;;;;3537392;40;20100;-66
2021/05/28 11:24:43;;;;;;;13.77;6.63;;;;;;;;;;3539762;40;20035;-66
2021/05/28 11:27:14;;;;;;;13.50;6.78;;;;;;;;;;3535506;40;20038;-66
2021/05/28 11:29:41;;;;;;;6.43;1.20;;;;;;;;;;3537863;40;20034;-66
2021/05/28 11:32:26;;;;;;;1.33;1.20;;;;;;;;;;3539750;40;20038;-66
2021/05/28 11:35:10;;;;;;;2.03;1.30;;;;;;;;;;3538850;40;20049;-66
2021/05/28 11:37:37;;;;;;;2.53;1.15;;;;;;;;;;3538400;40;20045;-66
2021/05/28 11:40:10;;;;;;;1.92;1.00;;;;;;;;;;3532920;40;20862;-66
2021/05/28 11:42:36;;;;;;;1.85;1.02;;;;;;;;;;3537449;40;20125;-66
2021/05/28 11:45:03;;;;;;;6.60;1.13;;;;;;;;;;3539314;40;20082;-68
2021/05/28 11:47:33;;;;;;;5.18;1.40;;;;;;;;;;3537133;40;20098;-66
2021/05/28 11:50:00;;;;;;;2.28;1.05;;;;;;;;;;3537912;40;20035;-67
2021/05/28 11:52:26;;;;;;;2.85;1.33;;;;;;;;;;3540968;40;20058;-66
2021/05/28 11:55:04;;;;;;;1.85;1.20;;;21.90;57.40;;;;;;3541695;40;20043;-66
2021/05/28 11:57:30;;;;;;;4.53;2.63;;;;;;;;;;3534041;40;20513;-66
2021/05/28 11:59:57;;;;;;;2.95;1.63;;;21.60;56.70;;;;;;3536464;40;20051;-67
2021/05/28 12:02:45;;;;;;;1.55;1.15;;;22.00;56.60;;;;;;3538740;40;20034;-67
2021/05/28 12:05:44;;;;;;;1.33;1.00;;;21.30;54.80;;;;;;3539814;40;20038;-66
2021/05/28 12:08:29;;;;;;;1.67;1.00;;;21.70;56.50;;;;;;3538681;40;20041;-67
2021/05/28 12:11:00;;;;;;;2.55;1.17;;;22.10;55.40;;;;;;3538562;40;20050;-67
2021/05/28 12:13:27;;;;;;;2.17;1.30;;;22.30;54.60;;;;;;3536303;40;20090;-67
2021/05/28 12:16:00;;;;;;;4.95;1.33;;;22.70;54.30;;;;;;3537344;40;20034;-66
2021/05/28 12:18:31;;;;;;;1.77;1.35;;;;;;;;;;3536296;40;20409;-66
2021/05/28 12:21:01;;;;;;;5.07;1.35;;;23.20;55.00;;;;;;3539073;40;20043;-67
2021/05/28 12:23:30;;;;;;;2.22;0.95;;;22.80;56.20;;;;;;3534983;40;20414;-67
2021/05/28 12:26:01;;;;;;;2.08;1.38;;;22.50;55.40;;;;;;3535021;40;20553;-67
2021/05/28 12:28:29;;;;;;;2.90;0.98;;;23.00;62.10;;;;;;3537790;40;20030;-66
2021/05/28 12:31:17;;;;;;;1.85;1.00;;;23.00;61.00;;;;;;3539013;40;20041;-66
2021/05/28 12:34:08;;;;;;;5.60;1.20;;;23.30;53.40;;;;;;3540416;40;20043;-66
2021/05/28 12:36:45;;;;;;;1.02;0.90;;;23.50;52.50;;;;;;3538965;40;20045;-67
2021/05/28 12:39:13;;;;;;;25.92;11.27;;;23.90;52.90;;;;;;3536990;40;20046;-67
2021/05/28 12:41:42;;;;;;;3.63;1.05;;;23.50;52.90;;;;;;3536077;40;20042;-67
2021/05/28 12:44:08;;;;;;;3.92;1.15;;;;;;;;;;3533202;40;20085;-67
2021/05/28 12:46:37;;;;;;;2.38;1.30;;;22.70;54.10;;;;;;3531287;40;20030;-66
2021/05/28 12:49:13;;;;;;;2.90;1.30;;;23.80;51.60;;;;;;3537867;40;20048;-67
2021/05/28 12:51:46;;;;;;;2.78;1.35;;;23.70;52.20;;;;;;3534683;40;20050;-67
2021/05/28 12:54:29;;;;;;;2.92;0.90;;;23.30;52.20;;;;;;3536913;40;20390;-67
2021/05/28 12:56:58;;;;;;;2.05;1.00;;;22.90;54.00;;;;;;3537444;40;20727;-67
2021/05/28 12:59:32;;;;;;;1.05;0.82;;;22.80;61.60;;;;;;3537971;40;20054;-67
2021/05/28 13:01:59;;;;;;;9.33;1.90;;;;;;;;;;3537899;40;20042;-66
2021/05/28 13:04:27;;;;;;;1.83;0.80;;;;;;;;;;3534063;40;20087;-67
2021/05/28 13:06:53;;;;;;;1.27;0.90;;;;;;;;;;3535714;40;20046;-67
2021/05/28 13:09:24;;;;;;;1.33;0.80;;;24.90;49.50;;;;;;3537999;40;20079;-66
2021/05/28 13:12:05;;;;;;;3.42;0.60;;;25.80;47.40;;;;;;3533513;40;20043;-66
2021/05/28 13:14:56;;;;;;;0.82;0.70;;;26.20;45.00;;;;;;3535199;40;20046;-67
2021/05/28 13:17:33;;;;;;;1.25;0.73;;;26.60;43.30;;;;;;3534094;40;20046;-67
2021/05/28 13:20:16;;;;;;;0.90;0.85;;;26.10;43.40;;;;;;3534776;40;20050;-66
2021/05/28 13:22:50;;;;;;;3.92;0.80;;;25.30;44.50;;;;;;3536678;40;20065;-67
2021/05/28 13:25:23;;;;;;;1.53;0.80;;;24.00;46.70;;;;;;3537859;40;20023;-67
2021/05/28 13:28:02;;;;;;;1.75;0.82;;;22.60;49.70;;;;;;3537030;40;20046;-66
2021/05/28 13:30:35;;;;;;;1.10;1.00;;;21.60;51.20;;;;;;3537108;40;20035;-67
2021/05/28 13:33:16;;;;;;;1.40;0.80;;;20.60;54.50;;;;;;3535690;40;20046;-66
2021/05/28 13:35:42;;;;;;;2.10;0.80;;;;;;;;;;3534048;40;20679;-67
2021/05/28 13:38:12;;;;;;;1.10;1.00;;;19.80;57.30;;;;;;3533690;40;20125;-66
2021/05/28 13:40:37;;;;;;;3.72;1.10;;;19.50;60.10;;;;;;3530834;40;20042;-66
2021/05/28 13:43:04;;;;;;;1.58;1.02;;;;;;;;;;3532570;40;20042;-66
2021/05/28 13:45:30;;;;;;;1.90;0.98;;;;;;;;;;3535983;40;20049;-66
2021/05/28 13:47:56;;;;;;;3.00;1.10;;;18.60;62.70;;;;;;3536429;40;20035;-66
2021/05/28 13:50:23;;;;;;;2.20;1.00;;;;;;;;;;3538541;40;20053;-66
2021/05/28 13:52:52;;;;;;;4.40;1.20;;;17.60;71.80;;;;;;3538789;40;20039;-66
2021/05/28 13:55:18;;;;;;;1.80;1.10;;;;;;;;;;3532119;40;20043;-66
2021/05/28 13:57:44;;;;;;;2.85;1.20;;;;;;;;;;3536937;40;20035;-66
2021/05/28 14:00:12;;;;;;;1.88;1.30;;;18.20;72.30;;;;;;3536153;40;20034;-66
2021/05/28 14:02:42;;;;;;;2.35;1.20;;;18.10;75.70;;;;;;3537105;40;20038;-66
2021/05/28 14:05:08;;;;;;;1.77;1.27;;;18.30;89.20;;;;;;3539798;40;20034;-66
2021/05/28 14:07:34;;;;;;;1.40;1.10;;;;;;;;;;3535327;40;20035;-66
2021/05/28 14:10:00;;;;;;;7.57;1.30;;;;;;;;;;3533653;40;20138;-66
2021/05/28 14:12:26;;;;;;;5.03;1.00;;;;;;;;;;3537422;40;20324;-67
2021/05/28 14:14:52;;;;;;;2.97;1.10;;;;;;;;;;3533782;40;20309;-67
2021/05/28 14:17:18;;;;;;;1.60;0.90;;;;;;;;;;3532309;40;20072;-66
2021/05/28 14:19:45;;;;;;;1.33;0.73;;;;;;;;;;3529810;40;20051;-67
2021/05/28 14:22:11;;;;;;;1.05;0.82;;;;;;;;;;3531700;40;20031;-66
2021/05/28 14:24:37;;;;;;;1.15;0.80;;;;;;;;;;3533173;40;20030;-65
2021/05/28 14:27:03;;;;;;;3.13;0.80;;;;;;;;;;3534876;40;20023;-67
2021/05/28 14:29:29;;;;;;;1.30;0.70;;;;;;;;;;3532841;40;20409;-67